Time;durP1;ratioP1;P1;durP2;ratioP2;P2;SDS_P1;SDS_P2;PMS_P1;PMS_P2;Temp;Humidity;BMP_temperature;BMP_pressure;BME280_temperature;BME280_humidity;BME280_pressure;Samples;Min_cycle;Max_cycle;Signal;HPM_P1;HPM_P2
2023/10/01 00:00:14;;;;;;;17.27;7.67;;;11.60;99.90;;;;;;5018256;28;20179;-60
2023/10/01 00:02:41;;;;;;;21.80;10.20;;;11.60;99.90;;;;;;5024092;28;20447;-61
2023/10/01 00:05:08;;;;;;;17.83;8.10;;;11.60;99.90;;;;;;5013876;28;20431;-61
2023/10/01 00:07:37;;;;;;;19.57;7.87;;;11.60;99.90;;;;;;5015827;28;20450;-60
2023/10/01 00:10:07;;;;;;;20.20;8.53;;;11.60;99.90;;;;;;5018680;28;20439;-61
2023/10/01 00:12:33;;;;;;;30.63;9.50;;;11.50;99.90;;;;;;5009877;28;20883;-61
2023/10/01 00:14:59;;;;;;;18.80;8.00;;;11.50;99.90;;;;;;5010086;28;20967;-61
2023/10/01 00:17:24;;;;;;;20.27;8.47;;;11.50;99.90;;;;;;5015381;28;20446;-61
2023/10/01 00:19:50;;;;;;;15.40;7.97;;;11.50;99.90;;;;;;5012987;28;20188;-60
2023/10/01 00:22:17;;;;;;;19.57;8.60;;;11.40;99.90;;;;;;5011437;28;20173;-61
2023/10/01 00:24:43;;;;;;;19.10;8.07;;;11.40;99.90;;;;;;5014160;28;20263;-61
2023/10/01 00:27:09;;;;;;;17.40;8.00;;;11.30;99.90;;;;;;5014796;28;20541;-59
2023/10/01 00:29:35;;;;;;;16.20;8.53;;;11.20;99.90;;;;;;5018571;28;20222;-62
2023/10/01 00:32:00;;;;;;;18.80;8.70;;;11.10;99.90;;;;;;5012410;28;20815;-62
2023/10/01 00:34:26;;;;;;;20.10;8.03;;;11.10;99.90;;;;;;5014305;28;20208;-61
2023/10/01 00:36:52;;;;;;;19.67;7.77;;;11.10;99.90;;;;;;5014377;28;20659;-62
2023/10/01 00:39:18;;;;;;;18.27;8.93;;;11.10;99.90;;;;;;5010537;28;20544;-60
2023/10/01 00:41:45;;;;;;;17.13;7.53;;;11.00;99.90;;;;;;5013639;28;20203;-61
2023/10/01 00:44:12;;;;;;;18.50;8.00;;;11.00;99.90;;;;;;5013219;28;20422;-62
2023/10/01 00:46:37;;;;;;;18.57;8.60;;;11.00;99.90;;;;;;5015557;28;20426;-61
2023/10/01 00:49:06;;;;;;;18.83;8.17;;;11.00;99.90;;;;;;5006501;28;20453;-61
2023/10/01 00:51:32;;;;;;;15.93;8.60;;;11.00;99.90;;;;;;5008835;28;20180;-61
2023/10/01 00:54:02;;;;;;;16.07;7.20;;;11.00;99.90;;;;;;5012123;28;20450;-61
2023/10/01 00:56:27;;;;;;;19.93;8.57;;;10.90;99.90;;;;;;5013213;28;20438;-60
2023/10/01 00:58:53;;;;;;;18.07;7.93;;;10.90;99.90;;;;;;5015882;28;20505;-62
2023/10/01 01:01:19;;;;;;;20.00;8.50;;;10.90;99.90;;;;;;5012453;28;20223;-62
2023/10/01 01:03:52;;;;;;;17.20;8.37;;;10.90;99.90;;;;;;5011928;28;20280;-61
2023/10/01 01:06:23;;;;;;;22.23;9.20;;;10.90;99.90;;;;;;5012250;28;20544;-62
2023/10/01 01:08:52;;;;;;;19.07;8.47;;;10.90;99.90;;;;;;5005214;28;20498;-61
2023/10/01 01:11:19;;;;;;;16.53;7.80;;;10.90;99.90;;;;;;5014216;28;20442;-62
2023/10/01 01:13:45;;;;;;;18.00;7.87;;;10.80;99.90;;;;;;5019025;28;20494;-61
2023/10/01 01:16:13;;;;;;;16.50;7.67;;;10.80;99.90;;;;;;5013376;28;20470;-62
2023/10/01 01:18:41;;;;;;;17.80;8.23;;;10.80;99.90;;;;;;5015745;28;20541;-60
2023/10/01 01:21:13;;;;;;;16.53;8.27;;;10.80;99.90;;;;;;5016048;28;20430;-63
2023/10/01 01:23:41;;;;;;;15.53;7.83;;;10.70;99.90;;;;;;5012535;28;20434;-60
2023/10/01 01:26:08;;;;;;;18.13;7.47;;;10.70;99.90;;;;;;5011780;28;20564;-62
2023/10/01 01:28:35;;;;;;;19.30;7.40;;;10.70;99.90;;;;;;5010805;28;20504;-60
2023/10/01 01:31:03;;;;;;;17.90;8.10;;;10.60;99.90;;;;;;5015703;28;20848;-61
2023/10/01 01:33:32;;;;;;;18.63;7.70;;;10.60;99.90;;;;;;5011198;28;20451;-61
2023/10/01 01:35:59;;;;;;;19.00;7.10;;;10.60;99.90;;;;;;5010694;28;20516;-61
2023/10/01 01:38:25;;;;;;;17.43;7.80;;;10.60;99.90;;;;;;5012165;28;20461;-60
2023/10/01 01:40:52;;;;;;;21.50;8.37;;;10.50;99.90;;;;;;5009720;28;20430;-60
2023/10/01 01:43:22;;;;;;;18.27;8.10;;;10.50;99.90;;;;;;5011845;28;20233;-60
2023/10/01 01:45:54;;;;;;;21.00;7.87;;;10.50;99.90;;;;;;5010747;28;20504;-61
2023/10/01 01:48:30;;;;;;;16.90;8.23;;;10.50;99.90;;;;;;5008050;28;20450;-63
2023/10/01 01:51:01;;;;;;;19.63;7.93;;;10.50;99.90;;;;;;5010698;28;20468;-61
2023/10/01 01:53:35;;;;;;;16.47;7.27;;;10.40;99.90;;;;;;5009259;28;20454;-62
2023/10/01 01:56:08;;;;;;;23.60;7.87;;;10.40;99.90;;;;;;5006608;28;21141;-61
2023/10/01 01:58:35;;;;;;;20.30;7.70;;;10.40;99.90;;;;;;5016680;28;20558;-62
2023/10/01 02:01:08;;;;;;;19.83;8.30;;;10.40;99.90;;;;;;5009119;28;20933;-60
2023/10/01 02:03:37;;;;;;;14.50;7.33;;;10.40;99.90;;;;;;5010570;28;20831;-61
2023/10/01 02:06:06;;;;;;;16.07;6.60;;;10.30;99.90;;;;;;5009561;28;20445;-60
2023/10/01 02:08:44;;;;;;;15.33;7.87;;;10.30;99.90;;;;;;5014486;28;20466;-62
2023/10/01 02:11:10;;;;;;;19.53;7.60;;;10.30;99.90;;;;;;5015974;28;20796;-61
2023/10/01 02:13:40;;;;;;;21.90;8.30;;;10.30;99.90;;;;;;5014818;28;20470;-60
2023/10/01 02:19:11;;;;;;;23.43;8.50;;;10.20;99.90;;;;;;5017288;28;20574;-61
2023/10/01 02:21:43;;;;;;;19.57;8.27;;;10.20;99.90;;;;;;5009860;28;20438;-60
2023/10/01 02:24:19;;;;;;;15.80;7.73;;;10.20;99.90;;;;;;5016752;28;20438;-60
2023/10/01 02:26:47;;;;;;;17.10;8.20;;;10.20;99.90;;;;;;5017209;28;20442;-60
2023/10/01 02:29:13;;;;;;;17.33;7.03;;;10.10;99.90;;;;;;5016821;28;20438;-60
2023/10/01 02:31:47;;;;;;;21.83;7.50;;;10.10;99.90;;;;;;5012464;28;20443;-60
2023/10/01 02:34:17;;;;;;;16.20;7.17;;;10.10;99.90;;;;;;5010181;28;20565;-61
2023/10/01 02:36:43;;;;;;;17.83;8.00;;;10.10;99.90;;;;;;5020038;28;20441;-60
2023/10/01 02:39:20;;;;;;;22.73;8.83;;;10.00;99.90;;;;;;5020885;28;20441;-62
2023/10/01 02:42:09;;;;;;;23.23;8.60;;;10.00;99.90;;;;;;5012574;28;20433;-60
2023/10/01 02:44:35;;;;;;;20.67;8.17;;;10.00;99.90;;;;;;5012295;28;20474;-60
2023/10/01 02:47:24;;;;;;;16.83;7.63;;;10.00;99.90;;;;;;5013414;28;20520;-60
2023/10/01 02:49:58;;;;;;;24.50;8.10;;;10.00;99.90;;;;;;5009758;28;20452;-61
2023/10/01 02:52:36;;;;;;;18.33;7.73;;;9.90;99.90;;;;;;5016422;28;20447;-60
2023/10/01 02:55:17;;;;;;;18.00;7.83;;;9.90;99.90;;;;;;5012353;28;20430;-60
2023/10/01 02:57:50;;;;;;;17.67;8.10;;;9.90;99.90;;;;;;5012698;28;20453;-62
2023/10/01 03:02:49;;;;;;;18.27;7.43;;;9.90;99.90;;;;;;5012805;28;20488;-61
2023/10/01 03:05:31;;;;;;;16.90;7.90;;;9.90;99.90;;;;;;5010283;28;20168;-60
2023/10/01 03:08:03;;;;;;;14.50;6.90;;;9.90;99.90;;;;;;5009946;28;20514;-63
2023/10/01 03:10:31;;;;;;;30.40;9.13;;;9.90;99.90;;;;;;5012970;28;20434;-60
2023/10/01 03:13:14;;;;;;;22.63;8.33;;;9.80;99.90;;;;;;5014338;28;20463;-60
2023/10/01 03:15:41;;;;;;;16.27;7.73;;;9.80;99.90;;;;;;5013612;28;22576;-61
2023/10/01 03:29:13;;;;;;;28.70;8.30;;;9.60;99.90;;;;;;5012173;28;20500;-60
2023/10/01 03:31:20;;;;;;;17.27;8.13;;;9.60;99.90;;;;;;5014356;28;20450;-60
2023/10/01 03:33:47;;;;;;;16.43;7.10;;;9.60;99.90;;;;;;5012148;28;20466;-61
2023/10/01 03:36:16;;;;;;;21.17;7.13;;;9.60;99.90;;;;;;5015244;28;20522;-58
2023/10/01 03:38:44;;;;;;;15.37;7.20;;;9.60;99.90;;;;;;5023684;28;20539;-61
2023/10/01 03:41:23;;;;;;;23.80;7.57;;;9.60;99.90;;;;;;5018773;28;20531;-60
2023/10/01 03:43:50;;;;;;;45.67;8.70;;;9.60;99.90;;;;;;5022769;28;21101;-60
2023/10/01 03:46:26;;;;;;;;;;;;;;;;;;;;;
2023/10/01 03:48:58;;;;;;;43.07;8.63;;;9.50;99.90;;;;;;5017377;28;20438;-60
2023/10/01 03:51:52;;;;;;;15.33;7.77;;;9.40;99.90;;;;;;5014852;28;20430;-62
2023/10/01 03:54:20;;;;;;;11.83;6.50;;;9.40;99.90;;;;;;5011398;28;20556;-60
2023/10/01 03:56:56;;;;;;;14.30;7.20;;;9.40;99.90;;;;;;5012965;28;20513;-60
2023/10/01 03:59:27;;;;;;;13.13;6.97;;;9.40;99.90;;;;;;5016521;28;22148;-60
2023/10/01 04:02:00;;;;;;;15.30;7.23;;;9.40;99.90;;;;;;5013291;28;20434;-61
2023/10/01 04:04:56;;;;;;;16.63;7.67;;;9.40;99.90;;;;;;5007999;28;20439;-61
2023/10/01 04:07:18;;;;;;;17.13;7.07;;;9.40;99.90;;;;;;5007502;28;20470;-60
2023/10/01 04:09:47;;;;;;;17.70;7.47;;;9.40;99.90;;;;;;5012049;28;22503;-60
2023/10/01 04:12:28;;;;;;;13.10;6.80;;;9.40;99.90;;;;;;5010850;28;20188;-61
2023/10/01 04:15:01;;;;;;;15.07;7.30;;;9.40;99.90;;;;;;5013812;28;20490;-60
2023/10/01 04:17:28;;;;;;;22.93;6.90;;;9.40;99.90;;;;;;5012722;28;20454;-60
2023/10/01 04:19:57;;;;;;;11.10;6.20;;;9.40;99.90;;;;;;5013222;28;20434;-61
2023/10/01 04:22:25;;;;;;;12.23;6.63;;;9.40;99.90;;;;;;5014063;28;20548;-60
2023/10/01 04:25:01;;;;;;;12.53;6.40;;;9.40;99.90;;;;;;5012002;28;20855;-59
2023/10/01 04:27:30;;;;;;;21.67;6.63;;;9.40;99.90;;;;;;5011380;28;20507;-60
2023/10/01 04:29:58;;;;;;;18.87;6.90;;;9.40;99.90;;;;;;5011860;28;20497;-60
2023/10/01 04:32:27;;;;;;;24.97;7.27;;;9.30;99.90;;;;;;5009269;28;21463;-59
2023/10/01 04:35:01;;;;;;;25.53;6.30;;;9.30;99.90;;;;;;5011930;28;20928;-61
2023/10/01 04:37:41;;;;;;;38.23;7.00;;;9.20;99.90;;;;;;5015365;28;20546;-62
2023/10/01 04:40:31;;;;;;;9.87;5.70;;;9.10;99.90;;;;;;5021857;28;20451;-60
2023/10/01 04:43:04;;;;;;;20.83;6.40;;;9.00;99.90;;;;;;5032652;28;20522;-60
2023/10/01 04:45:40;;;;;;;19.90;6.37;;;8.90;99.90;;;;;;5018582;28;20982;-60
2023/10/01 04:48:16;;;;;;;21.57;5.83;;;8.90;99.90;;;;;;5020714;28;20447;-61
2023/10/01 04:50:46;;;;;;;25.10;6.87;;;8.80;99.90;;;;;;5029451;28;21018;-60
2023/10/01 04:53:13;;;;;;;14.83;6.73;;;8.80;99.90;;;;;;5023081;28;20486;-60
2023/10/01 04:55:43;;;;;;;12.90;6.73;;;8.80;99.90;;;;;;5024101;28;20430;-61
2023/10/01 04:58:12;;;;;;;30.57;8.27;;;8.80;99.90;;;;;;5017220;28;20451;-61
2023/10/01 05:00:44;;;;;;;76.40;10.10;;;8.80;99.90;;;;;;5018520;28;20442;-60
2023/10/01 05:03:14;;;;;;;42.83;8.23;;;8.70;99.90;;;;;;5010516;28;20455;-61
2023/10/01 05:05:42;;;;;;;17.80;6.20;;;8.70;99.90;;;;;;5017941;28;20441;-61
2023/10/01 05:08:18;;;;;;;15.17;7.33;;;8.60;99.90;;;;;;5013922;28;20457;-59
2023/10/01 05:10:52;;;;;;;21.23;7.47;;;8.60;99.90;;;;;;5015259;28;20513;-60
2023/10/01 05:13:25;;;;;;;13.03;6.63;;;8.70;99.90;;;;;;5015897;28;20465;-58
2023/10/01 05:15:56;;;;;;;17.27;6.90;;;8.70;99.90;;;;;;5014766;28;20827;-61
2023/10/01 05:18:25;;;;;;;16.10;6.93;;;8.70;99.90;;;;;;5012633;28;20450;-61
2023/10/01 05:20:58;;;;;;;15.77;6.53;;;8.80;99.90;;;;;;5014646;28;20516;-63
2023/10/01 05:23:24;;;;;;;42.13;7.50;;;8.80;99.90;;;;;;5015445;28;20438;-61
2023/10/01 05:25:50;;;;;;;45.97;7.47;;;8.80;99.90;;;;;;5014618;28;20442;-62
2023/10/01 05:28:31;;;;;;;15.93;5.77;;;8.80;99.90;;;;;;5015104;28;20475;-61
2023/10/01 05:31:14;;;;;;;12.07;6.10;;;8.80;99.90;;;;;;5016148;28;20478;-60
2023/10/01 05:33:46;;;;;;;30.50;7.57;;;8.80;99.90;;;;;;5008578;28;20481;-61
2023/10/01 05:36:13;;;;;;;49.77;9.10;;;8.80;99.90;;;;;;5008797;28;22701;-60
2023/10/01 05:38:40;;;;;;;36.17;8.00;;;8.80;99.90;;;;;;5012647;28;21087;-55
2023/10/01 05:41:13;;;;;;;10.63;6.03;;;8.70;99.90;;;;;;5009540;28;20442;-61
2023/10/01 05:43:51;;;;;;;12.07;7.00;;;8.70;99.90;;;;;;5018417;28;20442;-62
2023/10/01 05:46:17;;;;;;;13.70;6.70;;;8.70;99.90;;;;;;5011958;28;20447;-60
2023/10/01 05:48:49;;;;;;;15.93;7.57;;;8.70;99.90;;;;;;5013905;28;20462;-61
2023/10/01 05:51:18;;;;;;;11.67;6.67;;;8.70;99.90;;;;;;5009795;28;20246;-61
2023/10/01 05:53:44;;;;;;;16.27;6.40;;;8.70;99.90;;;;;;5009655;28;20483;-61
2023/10/01 05:56:12;;;;;;;11.30;6.50;;;8.70;99.90;;;;;;5010140;28;20446;-59
2023/10/01 05:58:44;;;;;;;10.80;6.13;;;8.80;99.90;;;;;;5010125;28;20516;-61
2023/10/01 06:01:16;;;;;;;8.67;6.00;;;8.80;99.90;;;;;;5009560;28;20525;-60
2023/10/01 06:03:49;;;;;;;11.43;6.33;;;8.80;99.90;;;;;;5016341;28;20439;-61
2023/10/01 06:06:24;;;;;;;17.77;6.97;;;8.80;99.90;;;;;;5006081;28;22410;-61
2023/10/01 06:08:58;;;;;;;15.33;6.77;;;8.80;99.90;;;;;;5011141;28;20462;-60
2023/10/01 06:11:38;;;;;;;11.80;6.20;;;8.80;99.90;;;;;;5017153;28;20888;-59
2023/10/01 06:14:05;;;;;;;18.53;7.27;;;8.90;99.90;;;;;;5015540;28;20623;-59
2023/10/01 06:16:37;;;;;;;21.83;7.40;;;8.90;99.90;;;;;;5021391;28;20437;-61
2023/10/01 06:19:04;;;;;;;13.67;7.40;;;8.90;99.90;;;;;;5013970;28;20534;-60
2023/10/01 06:21:32;;;;;;;12.80;7.00;;;8.90;99.90;;;;;;5015602;28;20932;-59
2023/10/01 06:23:59;;;;;;;9.57;5.70;;;9.00;99.90;;;;;;5014757;28;20449;-60
2023/10/01 06:26:42;;;;;;;12.60;6.60;;;9.00;99.90;;;;;;5013511;28;20463;-60
2023/10/01 06:29:10;;;;;;;10.20;6.53;;;9.00;99.90;;;;;;5015927;28;20434;-63
2023/10/01 06:31:53;;;;;;;12.33;7.07;;;9.00;99.90;;;;;;5009981;28;20443;-60
2023/10/01 06:34:21;;;;;;;10.33;6.10;;;9.00;99.90;;;;;;5016272;28;20470;-62
2023/10/01 06:36:55;;;;;;;11.13;6.73;;;9.10;99.90;;;;;;5011869;28;20454;-61
2023/10/01 06:39:30;;;;;;;14.30;7.30;;;9.00;99.90;;;;;;5019367;28;20793;-62
2023/10/01 06:42:18;;;;;;;13.87;6.73;;;9.00;99.90;;;;;;5019152;28;20529;-61
2023/10/01 06:44:43;;;;;;;12.30;6.93;;;8.90;99.90;;;;;;5019400;28;20442;-60
2023/10/01 06:47:14;;;;;;;14.60;6.60;;;9.00;99.90;;;;;;5014990;28;20541;-62
2023/10/01 06:52:34;;;;;;;16.43;10.60;;;9.10;99.90;;;;;;5016472;28;20428;-60
2023/10/01 06:55:01;;;;;;;16.70;9.67;;;9.10;99.90;;;;;;5016519;28;21323;-60
2023/10/01 06:57:33;;;;;;;15.10;8.37;;;9.20;99.90;;;;;;5018758;28;20546;-61
2023/10/01 07:00:00;;;;;;;9.97;6.63;;;9.20;99.90;;;;;;5017105;28;20466;-62
2023/10/01 07:02:27;;;;;;;9.97;6.20;;;9.30;99.90;;;;;;5016100;28;20956;-60
2023/10/01 07:04:58;;;;;;;9.63;6.03;;;9.30;99.90;;;;;;5015477;28;20447;-60
2023/10/01 07:07:24;;;;;;;8.80;5.63;;;9.30;99.90;;;;;;5028484;28;20454;-62
2023/10/01 07:09:53;;;;;;;10.63;5.77;;;9.30;99.90;;;;;;5012301;28;20469;-60
2023/10/01 07:12:20;;;;;;;11.10;6.90;;;9.40;99.90;;;;;;5010731;28;20438;-60
2023/10/01 07:14:50;;;;;;;12.53;8.10;;;9.40;99.90;;;;;;5008043;28;21265;-60
2023/10/01 07:17:19;;;;;;;11.90;7.27;;;9.50;99.90;;;;;;5009915;28;20454;-62
2023/10/01 07:19:47;;;;;;;12.70;7.60;;;9.60;99.90;;;;;;5015632;28;20510;-57
2023/10/01 07:22:24;;;;;;;10.00;6.50;;;9.60;99.90;;;;;;5011430;28;20428;-61
2023/10/01 07:24:50;;;;;;;14.07;6.80;;;9.70;99.90;;;;;;5013045;28;20445;-60
2023/10/01 07:27:17;;;;;;;11.30;6.20;;;9.80;99.90;;;;;;5010000;28;21535;-61
2023/10/01 07:29:43;;;;;;;12.67;7.43;;;9.90;99.90;;;;;;5009147;28;20180;-62
2023/10/01 07:32:12;;;;;;;11.20;6.77;;;10.00;99.90;;;;;;5016643;28;20530;-62
2023/10/01 07:34:39;;;;;;;11.20;6.77;;;10.10;99.90;;;;;;5014270;28;20469;-62
2023/10/01 07:37:23;;;;;;;15.97;6.93;;;10.20;99.90;;;;;;5017321;28;20454;-56
2023/10/01 07:39:55;;;;;;;13.07;7.00;;;10.30;99.90;;;;;;5017613;28;20427;-54
2023/10/01 07:42:27;;;;;;;13.20;6.97;;;10.30;99.90;;;;;;5013702;28;20432;-55
2023/10/01 07:44:53;;;;;;;13.83;6.77;;;10.40;99.90;;;;;;5017317;28;20468;-58
2023/10/01 07:47:29;;;;;;;14.43;7.00;;;10.50;99.90;;;;;;5009324;28;20483;-56
2023/10/01 07:50:12;;;;;;;15.40;7.43;;;10.60;99.90;;;;;;5019532;28;20438;-56
2023/10/01 07:52:41;;;;;;;11.30;6.30;;;10.70;99.90;;;;;;5008207;28;20441;-57
2023/10/01 07:55:29;;;;;;;17.53;7.40;;;10.80;99.90;;;;;;5013848;28;20887;-57
2023/10/01 08:00:41;;;;;;;16.00;7.23;;;11.00;99.90;;;;;;5012899;28;20481;-56
2023/10/01 08:03:55;;;;;;;15.67;7.47;;;11.20;99.90;;;;;;5006890;28;21114;-58
2023/10/01 08:06:16;;;;;;;15.17;7.23;;;11.30;99.90;;;;;;5016484;28;20979;-62
2023/10/01 08:08:47;;;;;;;12.50;7.00;;;11.40;99.90;;;;;;5012202;28;20477;-62
2023/10/01 08:13:57;;;;;;;20.03;7.60;;;11.70;99.90;;;;;;5020173;28;20460;-61
2023/10/01 08:16:23;;;;;;;14.53;7.80;;;11.80;99.90;;;;;;5015111;28;20423;-61
2023/10/01 08:18:57;;;;;;;15.73;7.90;;;11.90;99.90;;;;;;5025253;28;20196;-59
2023/10/01 08:21:36;;;;;;;15.83;7.80;;;12.00;99.90;;;;;;5027049;28;20498;-61
2023/10/01 08:24:09;;;;;;;15.20;7.40;;;12.10;99.90;;;;;;5030066;28;20540;-61
2023/10/01 08:26:49;;;;;;;18.63;7.57;;;12.30;99.90;;;;;;5021390;28;20438;-60
2023/10/01 08:29:16;;;;;;;14.73;7.30;;;12.40;99.90;;;;;;5022218;28;20434;-61
2023/10/01 08:34:24;;;;;;;13.87;7.33;;;12.60;99.90;;;;;;5028123;28;20548;-61
2023/10/01 08:36:54;;;;;;;19.30;7.63;;;12.70;99.90;;;;;;5025589;28;20426;-60
2023/10/01 08:39:36;;;;;;;14.30;6.70;;;12.90;99.90;;;;;;5025303;28;20427;-61
2023/10/01 08:42:09;;;;;;;14.23;6.80;;;13.00;99.90;;;;;;5031879;28;20438;-60
2023/10/01 08:44:49;;;;;;;12.30;6.90;;;13.10;99.90;;;;;;5028472;28;20430;-60
2023/10/01 08:47:34;;;;;;;14.77;7.37;;;13.30;99.90;;;;;;5030318;28;20469;-61
2023/10/01 08:52:57;;;;;;;14.70;7.17;;;13.60;99.90;;;;;;5029461;28;20465;-62
2023/10/01 08:55:39;;;;;;;19.10;8.07;;;13.80;99.90;;;;;;5024146;28;20434;-60
2023/10/01 09:01:10;;;;;;;21.77;8.53;;;14.10;99.90;;;;;;5022326;28;20418;-61
2023/10/01 09:03:36;;;;;;;24.80;9.30;;;14.20;99.90;;;;;;5028929;28;20448;-62
2023/10/01 09:06:08;;;;;;;24.80;9.43;;;14.40;99.90;;;;;;5034740;28;20458;-61
2023/10/01 09:08:45;;;;;;;19.80;9.33;;;14.60;99.90;;;;;;5029685;28;20442;-60
2023/10/01 09:11:15;;;;;;;22.00;9.90;;;14.70;99.90;;;;;;5030519;28;20449;-59
2023/10/01 09:14:14;;;;;;;19.43;8.80;;;14.90;99.90;;;;;;5023240;28;21036;-61
2023/10/01 09:16:57;;;;;;;26.07;10.00;;;15.10;99.90;;;;;;5028502;28;20464;-61
2023/10/01 09:19:30;;;;;;;25.90;10.07;;;15.20;99.90;;;;;;5029085;28;20414;-61
2023/10/01 09:22:22;;;;;;;23.33;10.07;;;15.40;99.90;;;;;;5027245;28;20469;-61
2023/10/01 09:25:01;;;;;;;23.93;11.20;;;15.60;99.90;;;;;;5028504;28;20453;-63
2023/10/01 09:27:30;;;;;;;31.77;12.93;;;15.80;99.90;;;;;;5029655;28;20533;-61
2023/10/01 09:30:27;;;;;;;26.73;10.93;;;15.90;99.90;;;;;;5028852;28;20426;-60
2023/10/01 09:32:57;;;;;;;24.00;10.30;;;16.10;99.90;;;;;;5018448;28;20461;-61
2023/10/01 09:35:39;;;;;;;23.53;10.40;;;16.30;99.90;;;;;;5025517;28;20419;-61
2023/10/01 09:38:12;;;;;;;29.27;9.83;;;16.50;99.90;;;;;;5026793;28;20450;-61
2023/10/01 09:40:44;;;;;;;24.43;10.47;;;16.70;99.90;;;;;;5028027;28;20426;-62
2023/10/01 09:43:34;;;;;;;22.03;9.80;;;16.80;99.90;;;;;;5029789;28;20429;-61
2023/10/01 09:46:06;;;;;;;19.30;8.80;;;17.00;99.90;;;;;;5018360;28;20466;-60
2023/10/01 09:48:33;;;;;;;19.10;7.83;;;17.20;99.90;;;;;;5028190;28;20864;-61
2023/10/01 09:51:14;;;;;;;18.33;8.60;;;17.40;99.90;;;;;;5028036;28;20426;-61
2023/10/01 09:53:44;;;;;;;25.47;9.70;;;17.60;99.90;;;;;;5028581;28;21015;-59
2023/10/01 09:56:25;;;;;;;20.60;8.50;;;17.70;98.60;;;;;;5026674;28;21007;-61
2023/10/01 09:59:07;;;;;;;24.23;8.93;;;17.90;99.90;;;;;;5028951;28;20452;-60
2023/10/01 10:01:38;;;;;;;18.20;8.60;;;18.10;96.00;;;;;;5027792;28;20445;-61
2023/10/01 10:04:08;;;;;;;23.73;8.27;;;18.20;94.20;;;;;;5029721;28;20431;-60
2023/10/01 10:06:35;;;;;;;23.73;8.63;;;18.30;95.70;;;;;;5025542;28;20427;-61
2023/10/01 10:09:03;;;;;;;17.87;8.27;;;18.50;94.90;;;;;;5021773;28;20493;-62
2023/10/01 10:11:40;;;;;;;24.70;8.17;;;18.60;91.80;;;;;;5026844;28;20423;-62
2023/10/01 10:14:27;;;;;;;17.90;8.43;;;18.70;90.80;;;;;;5027479;28;20461;-59
2023/10/01 10:17:18;;;;;;;20.93;8.50;;;18.90;89.20;;;;;;5017713;28;20896;-61
2023/10/01 10:20:15;;;;;;;18.90;7.97;;;19.00;81.30;;;;;;5028423;28;20915;-61
2023/10/01 10:23:14;;;;;;;20.37;7.80;;;19.10;76.60;;;;;;5025973;28;20492;-60
2023/10/01 10:25:40;;;;;;;17.07;7.90;;;19.20;80.30;;;;;;5024873;28;20426;-61
2023/10/01 10:28:07;;;;;;;19.73;9.27;;;19.40;82.70;;;;;;5030012;28;20434;-61
2023/10/01 10:30:33;;;;;;;25.03;9.33;;;19.60;79.60;;;;;;5025450;28;20418;-61
2023/10/01 10:33:29;;;;;;;19.57;8.07;;;19.80;75.10;;;;;;5017734;28;20481;-62
2023/10/01 10:36:49;;;;;;;22.17;8.10;;;19.90;69.60;;;;;;5025699;28;20237;-61
2023/10/01 10:40:02;;;;;;;16.80;8.43;;;20.00;67.40;;;;;;5025278;28;20438;-61
2023/10/01 10:42:28;;;;;;;19.53;9.00;;;20.20;69.30;;;;;;5020353;28;20457;-61
2023/10/01 10:45:24;;;;;;;21.17;8.10;;;20.40;69.90;;;;;;5024546;28;20839;-61
2023/10/01 10:47:59;;;;;;;18.10;8.70;;;20.60;68.10;;;;;;5024354;28;20290;-61
2023/10/01 10:50:50;;;;;;;19.77;8.30;;;20.80;66.20;;;;;;5027553;28;20432;-61
2023/10/01 10:53:25;;;;;;;18.70;8.57;;;21.00;64.90;;;;;;5026367;28;20693;-62
2023/10/01 10:56:04;;;;;;;17.73;8.50;;;21.10;63.30;;;;;;5027441;28;21174;-61
2023/10/01 10:58:42;;;;;;;17.13;7.90;;;21.30;62.00;;;;;;5028040;28;20477;-61
2023/10/01 11:01:21;;;;;;;19.33;8.10;;;21.40;58.40;;;;;;5026454;28;20434;-62
2023/10/01 11:03:50;;;;;;;20.27;8.10;;;21.40;58.00;;;;;;5028086;28;20438;-62
2023/10/01 11:06:23;;;;;;;20.23;7.90;;;21.60;58.40;;;;;;5022259;28;20522;-61
2023/10/01 11:08:52;;;;;;;14.70;7.70;;;21.80;58.40;;;;;;5031453;28;20446;-61
2023/10/01 11:11:22;;;;;;;19.00;8.13;;;22.00;58.30;;;;;;5025195;28;20450;-60
2023/10/01 11:13:59;;;;;;;17.93;8.27;;;22.40;58.60;;;;;;5028632;28;20590;-62
2023/10/01 11:16:36;;;;;;;13.67;7.87;;;22.70;57.30;;;;;;5018862;28;20433;-61
2023/10/01 11:19:12;;;;;;;19.40;8.30;;;23.00;55.60;;;;;;5025180;28;20986;-60
2023/10/01 11:22:01;;;;;;;21.03;8.10;;;23.40;54.00;;;;;;5026856;28;20429;-62
2023/10/01 11:24:29;;;;;;;15.87;7.33;;;23.80;54.50;;;;;;5025295;28;20475;-62
2023/10/01 11:27:43;;;;;;;18.40;7.77;;;24.10;54.20;;;;;;5023495;28;20418;-61
2023/10/01 11:30:13;;;;;;;15.03;8.10;;;24.40;53.30;;;;;;5022015;28;20453;-61
2023/10/01 11:32:58;;;;;;;17.60;7.87;;;24.60;53.20;;;;;;5022272;28;20430;-61
2023/10/01 11:35:33;;;;;;;17.90;8.17;;;24.80;52.90;;;;;;5028498;28;21113;-62
2023/10/01 11:38:09;;;;;;;17.20;7.83;;;24.90;52.30;;;;;;5020186;28;20443;-62
2023/10/01 11:43:27;;;;;;;14.60;7.40;;;25.00;51.20;;;;;;5022874;28;20437;-63
2023/10/01 11:46:23;;;;;;;17.43;7.80;;;25.00;50.80;;;;;;5028183;28;20493;-62
2023/10/01 11:49:07;;;;;;;15.07;7.70;;;25.10;51.80;;;;;;5021646;28;20495;-62
2023/10/01 11:51:54;;;;;;;14.70;7.43;;;25.10;51.40;;;;;;5024271;28;20526;-61
2023/10/01 11:54:43;;;;;;;14.53;7.23;;;25.30;52.00;;;;;;5024953;28;20450;-62
2023/10/01 11:57:35;;;;;;;14.40;7.53;;;25.40;51.60;;;;;;5022664;28;20448;-63
2023/10/01 12:00:03;;;;;;;14.57;6.93;;;25.60;51.20;;;;;;5014179;28;20424;-62
2023/10/01 12:02:33;;;;;;;14.97;7.50;;;25.70;50.30;;;;;;5023208;28;20202;-62
2023/10/01 12:05:04;;;;;;;17.67;8.00;;;25.90;51.10;;;;;;5023128;28;20223;-62
2023/10/01 12:07:32;;;;;;;18.93;8.30;;;26.00;50.80;;;;;;5021466;28;20450;-62
2023/10/01 12:09:59;;;;;;;16.80;7.33;;;26.10;49.90;;;;;;5027975;28;20202;-62
2023/10/01 12:12:39;;;;;;;15.00;7.33;;;26.10;49.80;;;;;;5023977;28;20175;-62
2023/10/01 12:17:53;;;;;;;15.70;7.80;;;26.30;49.70;;;;;;5022953;28;20694;-62
2023/10/01 12:20:22;;;;;;;14.77;7.37;;;26.40;48.10;;;;;;5027675;28;20163;-60
2023/10/01 12:28:29;;;;;;;18.03;8.37;;;26.50;47.70;;;;;;5026983;28;20195;-62
2023/10/01 12:31:23;;;;;;;15.23;7.33;;;26.40;46.20;;;;;;5026554;28;20179;-62
2023/10/01 12:33:43;;;;;;;20.73;7.63;;;26.40;47.80;;;;;;5026226;28;21693;-62
2023/10/01 12:36:31;;;;;;;17.90;7.27;;;26.40;47.00;;;;;;5023774;28;20175;-62
2023/10/01 12:41:47;;;;;;;14.20;7.63;;;26.60;48.30;;;;;;5024656;28;20183;-62
2023/10/01 12:44:25;;;;;;;15.30;7.03;;;26.70;48.50;;;;;;5027179;28;20222;-62
2023/10/01 12:46:54;;;;;;;14.87;7.80;;;26.80;47.60;;;;;;5021329;28;20171;-62
2023/10/01 12:49:20;;;;;;;16.00;8.00;;;26.80;46.60;;;;;;5021376;28;20184;-62
2023/10/01 12:51:53;;;;;;;21.87;8.40;;;26.90;47.20;;;;;;5026934;28;20218;-62
2023/10/01 12:54:28;;;;;;;13.97;7.83;;;27.00;48.10;;;;;;5021214;28;20656;-62
2023/10/01 12:57:09;;;;;;;15.70;7.93;;;27.10;48.20;;;;;;5018278;28;20176;-62
2023/10/01 12:59:42;;;;;;;15.90;7.77;;;27.20;47.90;;;;;;5025585;28;20742;-62
2023/10/01 13:07:45;;;;;;;16.00;8.43;;;27.50;47.40;;;;;;5029841;28;20279;-62
2023/10/01 13:10:11;;;;;;;17.47;8.10;;;27.50;46.30;;;;;;5028673;28;20556;-61
2023/10/01 13:12:49;;;;;;;18.83;8.87;;;27.50;45.90;;;;;;5029331;28;20184;-63
2023/10/01 13:15:15;;;;;;;21.00;8.80;;;27.40;46.00;;;;;;5030192;28;20180;-62
2023/10/01 13:17:44;;;;;;;18.93;8.53;;;27.50;47.40;;;;;;5019566;28;20199;-61
2023/10/01 13:20:25;;;;;;;14.10;8.00;;;27.60;47.10;;;;;;5026867;28;20175;-62
2023/10/01 13:22:52;;;;;;;14.03;7.17;;;27.70;47.20;;;;;;5024475;28;20163;-61
2023/10/01 13:25:24;;;;;;;18.27;7.87;;;27.80;46.80;;;;;;5031124;28;20221;-61
2023/10/01 13:28:01;;;;;;;23.93;8.17;;;27.90;47.40;;;;;;5023859;28;20294;-63
2023/10/01 13:31:03;;;;;;;16.50;8.43;;;28.10;46.90;;;;;;5024242;28;20261;-62
2023/10/01 13:33:20;;;;;;;18.00;7.73;;;28.10;45.70;;;;;;5025724;28;20218;-63
2023/10/01 13:35:58;;;;;;;15.23;8.00;;;28.10;46.30;;;;;;5030952;28;20171;-62
2023/10/01 14:08:45;;;;;;;16.45;8.70;;;28.80;43.60;;;;;;5028200;28;20238;-62
2023/10/01 14:11:12;;;;;;;16.67;8.18;;;28.90;42.40;;;;;;5027171;28;20195;-63
2023/10/01 14:13:41;;;;;;;18.10;8.60;;;28.90;43.40;;;;;;5018020;28;20222;-62
2023/10/01 14:16:23;;;;;;;17.37;8.70;;;29.00;43.40;;;;;;5018372;28;20179;-63
2023/10/01 14:21:52;;;;;;;15.00;8.25;;;29.10;42.40;;;;;;5026129;28;20166;-62
2023/10/01 14:24:24;;;;;;;18.90;8.60;;;29.30;42.70;;;;;;5022407;28;20235;-62
2023/10/01 14:26:51;;;;;;;18.20;7.78;;;29.30;42.30;;;;;;5018836;28;20175;-61
2023/10/01 14:29:23;;;;;;;18.92;9.00;;;29.30;41.90;;;;;;5026626;28;20176;-61
2023/10/01 14:31:52;;;;;;;15.52;7.97;;;29.40;41.50;;;;;;5024028;28;20321;-61
2023/10/01 14:34:20;;;;;;;20.40;8.10;;;29.40;41.80;;;;;;5023887;28;20679;-60
2023/10/01 14:36:47;;;;;;;16.35;8.10;;;29.40;41.30;;;;;;5027402;28;20175;-63